sensor_id;sensor_type;location;lat;lon;timestamp;P1;durP1;ratioP1;P2;durP2;ratioP2
46607;SDS011;32330;51.936;7.184;2023-03-23T04:51:30;3.95;;;2.80;;
46607;SDS011;32330;51.936;7.184;2023-03-23T04:54:09;4.47;;;3.30;;
46607;SDS011;32330;51.936;7.184;2023-03-23T04:56:39;6.22;;;3.50;;
46607;SDS011;32330;51.936;7.184;2023-03-23T04:59:11;4.80;;;3.10;;
46607;SDS011;32330;51.936;7.184;2023-03-23T05:02:05;8.73;;;3.28;;
46607;SDS011;32330;51.936;7.184;2023-03-23T05:04:33;6.80;;;3.35;;
46607;SDS011;32330;51.936;7.184;2023-03-23T05:07:14;4.28;;;3.10;;
46607;SDS011;32330;51.936;7.184;2023-03-23T05:09:46;4.93;;;3.10;;
46607;SDS011;32330;51.936;7.184;2023-03-23T05:12:15;5.03;;;3.13;;
46607;SDS011;32330;51.936;7.184;2023-03-23T05:14:52;3.95;;;2.92;;
46607;SDS011;32330;51.936;7.184;2023-03-23T05:17:23;5.78;;;3.22;;
46607;SDS011;32330;51.936;7.184;2023-03-23T05:19:53;7.30;;;3.08;;
46607;SDS011;32330;51.936;7.184;2023-03-23T05:22:42;4.75;;;3.17;;
46607;SDS011;32330;51.936;7.184;2023-03-23T05:27:45;3.50;;;2.70;;
46607;SDS011;32330;51.936;7.184;2023-03-23T05:30:25;4.03;;;2.55;;
46607;SDS011;32330;51.936;7.184;2023-03-23T05:32:53;4.32;;;2.88;;
46607;SDS011;32330;51.936;7.184;2023-03-23T05:35:38;4.82;;;2.65;;
46607;SDS011;32330;51.936;7.184;2023-03-23T05:38:06;4.85;;;2.92;;
46607;SDS011;32330;51.936;7.184;2023-03-23T05:40:34;6.53;;;2.60;;
46607;SDS011;32330;51.936;7.184;2023-03-23T05:43:07;3.67;;;2.65;;
46607;SDS011;32330;51.936;7.184;2023-03-23T05:45:44;5.20;;;2.80;;
46607;SDS011;32330;51.936;7.184;2023-03-23T05:48:12;4.55;;;2.50;;
46607;SDS011;32330;51.936;7.184;2023-03-23T05:50:39;5.55;;;2.88;;
46607;SDS011;32330;51.936;7.184;2023-03-23T05:53:07;5.38;;;2.70;;
46607;SDS011;32330;51.936;7.184;2023-03-23T05:55:37;5.15;;;2.42;;
46607;SDS011;32330;51.936;7.184;2023-03-23T05:58:20;5.65;;;2.65;;
46607;SDS011;32330;51.936;7.184;2023-03-23T06:00:47;4.18;;;2.88;;
46607;SDS011;32330;51.936;7.184;2023-03-23T06:03:25;3.30;;;2.40;;
46607;SDS011;32330;51.936;7.184;2023-03-23T06:06:11;4.47;;;2.17;;
46607;SDS011;32330;51.936;7.184;2023-03-23T06:09:06;3.97;;;2.28;;
46607;SDS011;32330;51.936;7.184;2023-03-23T06:11:43;5.22;;;2.35;;
46607;SDS011;32330;51.936;7.184;2023-03-23T06:14:27;3.83;;;2.70;;
46607;SDS011;32330;51.936;7.184;2023-03-23T06:16:54;3.08;;;2.10;;
46607;SDS011;32330;51.936;7.184;2023-03-23T06:19:22;5.78;;;2.30;;
46607;SDS011;32330;51.936;7.184;2023-03-23T06:22:02;4.28;;;2.55;;
46607;SDS011;32330;51.936;7.184;2023-03-23T06:25:01;8.23;;;3.10;;
46607;SDS011;32330;51.936;7.184;2023-03-23T06:27:35;4.68;;;2.40;;
46607;SDS011;32330;51.936;7.184;2023-03-23T06:30:03;4.05;;;2.20;;
46607;SDS011;32330;51.936;7.184;2023-03-23T06:32:32;6.80;;;3.15;;
46607;SDS011;32330;51.936;7.184;2023-03-23T06:35:01;4.97;;;2.50;;
46607;SDS011;32330;51.936;7.184;2023-03-23T06:37:38;3.90;;;2.40;;
46607;SDS011;32330;51.936;7.184;2023-03-23T06:40:18;5.03;;;2.42;;
46607;SDS011;32330;51.936;7.184;2023-03-23T06:42:52;5.13;;;2.47;;
46607;SDS011;32330;51.936;7.184;2023-03-23T06:45:38;4.95;;;2.40;;
46607;SDS011;32330;51.936;7.184;2023-03-23T06:48:43;4.00;;;2.15;;
46607;SDS011;32330;51.936;7.184;2023-03-23T06:51:15;3.97;;;2.13;;
46607;SDS011;32330;51.936;7.184;2023-03-23T06:53:47;6.65;;;2.25;;
46607;SDS011;32330;51.936;7.184;2023-03-23T06:56:16;4.38;;;2.55;;
46607;SDS011;32330;51.936;7.184;2023-03-23T06:58:44;6.57;;;2.90;;
46607;SDS011;32330;51.936;7.184;2023-03-23T07:01:11;6.20;;;2.42;;
46607;SDS011;32330;51.936;7.184;2023-03-23T07:03:47;3.97;;;2.10;;
46607;SDS011;32330;51.936;7.184;2023-03-23T07:06:20;4.43;;;2.30;;
46607;SDS011;32330;51.936;7.184;2023-03-23T07:08:53;4.75;;;2.30;;
46607;SDS011;32330;51.936;7.184;2023-03-23T07:11:28;5.03;;;2.35;;
46607;SDS011;32330;51.936;7.184;2023-03-23T07:13:58;4.05;;;2.28;;
46607;SDS011;32330;51.936;7.184;2023-03-23T07:16:25;5.13;;;2.67;;
46607;SDS011;32330;51.936;7.184;2023-03-23T07:18:53;5.10;;;1.85;;
46607;SDS011;32330;51.936;7.184;2023-03-23T07:21:20;6.20;;;2.42;;
46607;SDS011;32330;51.936;7.184;2023-03-23T07:23:47;4.57;;;2.35;;
46607;SDS011;32330;51.936;7.184;2023-03-23T07:26:22;5.65;;;2.85;;
46607;SDS011;32330;51.936;7.184;2023-03-23T07:28:55;4.03;;;2.38;;
46607;SDS011;32330;51.936;7.184;2023-03-23T07:31:31;4.28;;;2.65;;
46607;SDS011;32330;51.936;7.184;2023-03-23T07:33:58;4.72;;;2.00;;
46607;SDS011;32330;51.936;7.184;2023-03-23T07:36:36;4.47;;;1.95;;
46607;SDS011;32330;51.936;7.184;2023-03-23T07:39:05;5.00;;;2.80;;
46607;SDS011;32330;51.936;7.184;2023-03-23T07:41:33;5.32;;;2.28;;
46607;SDS011;32330;51.936;7.184;2023-03-23T07:44:09;6.00;;;2.30;;
46607;SDS011;32330;51.936;7.184;2023-03-23T07:46:36;4.70;;;2.20;;
46607;SDS011;32330;51.936;7.184;2023-03-23T07:49:10;8.35;;;2.40;;
46607;SDS011;32330;51.936;7.184;2023-03-23T07:51:42;4.80;;;2.20;;
46607;SDS011;32330;51.936;7.184;2023-03-23T07:54:12;6.45;;;1.98;;
46607;SDS011;32330;51.936;7.184;2023-03-23T07:57:12;3.95;;;2.17;;
46607;SDS011;32330;51.936;7.184;2023-03-23T07:59:46;3.65;;;1.92;;
46607;SDS011;32330;51.936;7.184;2023-03-23T08:02:13;6.85;;;2.25;;
46607;SDS011;32330;51.936;7.184;2023-03-23T08:04:53;4.88;;;2.20;;
46607;SDS011;32330;51.936;7.184;2023-03-23T08:07:41;7.82;;;2.45;;
46607;SDS011;32330;51.936;7.184;2023-03-23T08:10:25;6.22;;;2.55;;
46607;SDS011;32330;51.936;7.184;2023-03-23T08:13:03;4.90;;;2.50;;
46607;SDS011;32330;51.936;7.184;2023-03-23T08:15:51;5.60;;;2.42;;
46607;SDS011;32330;51.936;7.184;2023-03-23T08:18:29;6.40;;;2.53;;
46607;SDS011;32330;51.936;7.184;2023-03-23T08:21:05;9.65;;;4.03;;
46607;SDS011;32330;51.936;7.184;2023-03-23T08:23:58;5.35;;;1.88;;
46607;SDS011;32330;51.936;7.184;2023-03-23T08:26:45;5.57;;;1.98;;
46607;SDS011;32330;51.936;7.184;2023-03-23T08:29:35;9.40;;;3.30;;
46607;SDS011;32330;51.936;7.184;2023-03-23T08:32:36;11.07;;;4.05;;
46607;SDS011;32330;51.936;7.184;2023-03-23T08:35:12;7.70;;;3.35;;
46607;SDS011;32330;51.936;7.184;2023-03-23T08:37:54;9.13;;;3.03;;
46607;SDS011;32330;51.936;7.184;2023-03-23T08:40:40;7.18;;;3.10;;
46607;SDS011;32330;51.936;7.184;2023-03-23T08:43:35;8.25;;;2.72;;
46607;SDS011;32330;51.936;7.184;2023-03-23T08:46:31;5.55;;;2.33;;
46607;SDS011;32330;51.936;7.184;2023-03-23T08:49:25;3.72;;;2.17;;
46607;SDS011;32330;51.936;7.184;2023-03-23T08:52:15;6.57;;;2.35;;
46607;SDS011;32330;51.936;7.184;2023-03-23T08:54:53;6.88;;;2.28;;
46607;SDS011;32330;51.936;7.184;2023-03-23T08:57:43;6.75;;;2.42;;
46607;SDS011;32330;51.936;7.184;2023-03-23T09:00:30;6.97;;;3.15;;
46607;SDS011;32330;51.936;7.184;2023-03-23T09:03:17;7.00;;;3.00;;
46607;SDS011;32330;51.936;7.184;2023-03-23T09:06:03;8.85;;;2.58;;
46607;SDS011;32330;51.936;7.184;2023-03-23T09:08:42;5.10;;;2.40;;
46607;SDS011;32330;51.936;7.184;2023-03-23T09:11:09;7.20;;;1.98;;
46607;SDS011;32330;51.936;7.184;2023-03-23T09:13:37;2.65;;;1.05;;
46607;SDS011;32330;51.936;7.184;2023-03-23T09:16:05;3.40;;;0.85;;
46607;SDS011;32330;51.936;7.184;2023-03-23T09:18:33;1.80;;;0.60;;
46607;SDS011;32330;51.936;7.184;2023-03-23T09:21:03;3.45;;;0.63;;
46607;SDS011;32330;51.936;7.184;2023-03-23T09:23:30;1.45;;;0.43;;
46607;SDS011;32330;51.936;7.184;2023-03-23T09:25:59;1.20;;;0.45;;
46607;SDS011;32330;51.936;7.184;2023-03-23T09:28:26;1.90;;;0.55;;
46607;SDS011;32330;51.936;7.184;2023-03-23T09:30:54;2.15;;;0.60;;
46607;SDS011;32330;51.936;7.184;2023-03-23T09:33:22;1.17;;;0.60;;
46607;SDS011;32330;51.936;7.184;2023-03-23T09:35:50;1.25;;;0.55;;
46607;SDS011;32330;51.936;7.184;2023-03-23T09:38:18;2.15;;;0.52;;
46607;SDS011;32330;51.936;7.184;2023-03-23T09:40:47;2.03;;;0.70;;
46607;SDS011;32330;51.936;7.184;2023-03-23T09:43:25;2.65;;;0.80;;
46607;SDS011;32330;51.936;7.184;2023-03-23T09:46:17;1.92;;;0.80;;
46607;SDS011;32330;51.936;7.184;2023-03-23T09:48:55;4.75;;;0.80;;
46607;SDS011;32330;51.936;7.184;2023-03-23T09:51:32;4.68;;;1.27;;
46607;SDS011;32330;51.936;7.184;2023-03-23T09:54:10;2.05;;;1.33;;
46607;SDS011;32330;51.936;7.184;2023-03-23T09:56:43;2.40;;;0.50;;
46607;SDS011;32330;51.936;7.184;2023-03-23T09:59:13;1.35;;;0.60;;
46607;SDS011;32330;51.936;7.184;2023-03-23T10:01:45;2.03;;;0.52;;
46607;SDS011;32330;51.936;7.184;2023-03-23T10:04:16;3.40;;;0.50;;
46607;SDS011;32330;51.936;7.184;2023-03-23T10:06:52;2.45;;;0.45;;
46607;SDS011;32330;51.936;7.184;2023-03-23T10:09:24;1.60;;;0.55;;
46607;SDS011;32330;51.936;7.184;2023-03-23T10:11:54;1.88;;;0.60;;
46607;SDS011;32330;51.936;7.184;2023-03-23T10:14:30;1.48;;;0.75;;
46607;SDS011;32330;51.936;7.184;2023-03-23T10:17:08;1.90;;;0.50;;
46607;SDS011;32330;51.936;7.184;2023-03-23T10:19:44;4.70;;;0.95;;
46607;SDS011;32330;51.936;7.184;2023-03-23T10:22:14;3.15;;;1.13;;
46607;SDS011;32330;51.936;7.184;2023-03-23T10:24:50;3.08;;;0.70;;
46607;SDS011;32330;51.936;7.184;2023-03-23T10:27:23;2.97;;;0.90;;
46607;SDS011;32330;51.936;7.184;2023-03-23T10:29:55;2.42;;;0.98;;
46607;SDS011;32330;51.936;7.184;2023-03-23T10:32:39;2.72;;;0.80;;
46607;SDS011;32330;51.936;7.184;2023-03-23T10:35:10;2.88;;;0.93;;
46607;SDS011;32330;51.936;7.184;2023-03-23T10:37:41;3.25;;;0.82;;
46607;SDS011;32330;51.936;7.184;2023-03-23T10:42:43;3.95;;;0.90;;
46607;SDS011;32330;51.936;7.184;2023-03-23T10:45:12;4.40;;;0.90;;
46607;SDS011;32330;51.936;7.184;2023-03-23T10:47:45;5.07;;;1.00;;
46607;SDS011;32330;51.936;7.184;2023-03-23T10:50:16;5.63;;;1.10;;
46607;SDS011;32330;51.936;7.184;2023-03-23T10:52:57;3.33;;;0.98;;
46607;SDS011;32330;51.936;7.184;2023-03-23T10:55:36;2.70;;;1.08;;
46607;SDS011;32330;51.936;7.184;2023-03-23T10:58:06;5.32;;;1.10;;
46607;SDS011;32330;51.936;7.184;2023-03-23T11:00:39;4.82;;;1.55;;
46607;SDS011;32330;51.936;7.184;2023-03-23T11:03:20;4.82;;;1.55;;
46607;SDS011;32330;51.936;7.184;2023-03-23T11:05:52;3.92;;;0.75;;
46607;SDS011;32330;51.936;7.184;2023-03-23T11:08:24;4.20;;;0.80;;
46607;SDS011;32330;51.936;7.184;2023-03-23T11:10:53;3.30;;;1.10;;
46607;SDS011;32330;51.936;7.184;2023-03-23T11:13:27;4.13;;;1.00;;
46607;SDS011;32330;51.936;7.184;2023-03-23T11:15:56;3.67;;;1.30;;
46607;SDS011;32330;51.936;7.184;2023-03-23T11:18:25;2.17;;;0.70;;
46607;SDS011;32330;51.936;7.184;2023-03-23T11:21:01;2.72;;;0.80;;
46607;SDS011;32330;51.936;7.184;2023-03-23T11:23:30;3.65;;;0.93;;
46607;SDS011;32330;51.936;7.184;2023-03-23T11:26:02;3.13;;;0.90;;
46607;SDS011;32330;51.936;7.184;2023-03-23T11:28:35;3.88;;;0.90;;
46607;SDS011;32330;51.936;7.184;2023-03-23T11:31:04;2.28;;;1.02;;
46607;SDS011;32330;51.936;7.184;2023-03-23T11:33:35;2.70;;;0.93;;
46607;SDS011;32330;51.936;7.184;2023-03-23T11:36:13;2.53;;;0.55;;
46607;SDS011;32330;51.936;7.184;2023-03-23T11:38:40;2.63;;;0.93;;
46607;SDS011;32330;51.936;7.184;2023-03-23T11:41:11;1.55;;;0.70;;
46607;SDS011;32330;51.936;7.184;2023-03-23T11:43:39;2.85;;;1.02;;
46607;SDS011;32330;51.936;7.184;2023-03-23T11:46:11;3.37;;;0.90;;
46607;SDS011;32330;51.936;7.184;2023-03-23T11:48:43;2.28;;;0.98;;
46607;SDS011;32330;51.936;7.184;2023-03-23T11:51:17;2.08;;;0.73;;
46607;SDS011;32330;51.936;7.184;2023-03-23T11:53:50;4.07;;;1.10;;
46607;SDS011;32330;51.936;7.184;2023-03-23T11:56:26;4.07;;;1.00;;
46607;SDS011;32330;51.936;7.184;2023-03-23T11:58:56;2.47;;;1.08;;
46607;SDS011;32330;51.936;7.184;2023-03-23T12:01:35;2.60;;;1.05;;
46607;SDS011;32330;51.936;7.184;2023-03-23T12:07:13;2.80;;;0.90;;
46607;SDS011;32330;51.936;7.184;2023-03-23T12:09:49;2.45;;;1.05;;
46607;SDS011;32330;51.936;7.184;2023-03-23T12:12:42;3.17;;;1.13;;
46607;SDS011;32330;51.936;7.184;2023-03-23T12:15:17;2.65;;;0.85;;
46607;SDS011;32330;51.936;7.184;2023-03-23T12:17:52;4.15;;;1.20;;
46607;SDS011;32330;51.936;7.184;2023-03-23T12:20:29;3.70;;;1.48;;
46607;SDS011;32330;51.936;7.184;2023-03-23T12:23:07;1.83;;;0.70;;
46607;SDS011;32330;51.936;7.184;2023-03-23T12:25:51;4.38;;;1.10;;
46607;SDS011;32330;51.936;7.184;2023-03-23T12:28:32;3.03;;;1.10;;
46607;SDS011;32330;51.936;7.184;2023-03-23T12:31:10;3.78;;;1.05;;
46607;SDS011;32330;51.936;7.184;2023-03-23T12:33:45;3.33;;;1.10;;
46607;SDS011;32330;51.936;7.184;2023-03-23T12:36:30;3.72;;;1.23;;
46607;SDS011;32330;51.936;7.184;2023-03-23T12:39:29;2.53;;;1.00;;
46607;SDS011;32330;51.936;7.184;2023-03-23T12:42:20;2.72;;;1.00;;
46607;SDS011;32330;51.936;7.184;2023-03-23T12:44:55;4.47;;;1.55;;
46607;SDS011;32330;51.936;7.184;2023-03-23T12:47:31;4.75;;;1.30;;
46607;SDS011;32330;51.936;7.184;2023-03-23T12:50:04;2.25;;;0.80;;
46607;SDS011;32330;51.936;7.184;2023-03-23T12:52:37;1.58;;;0.80;;
46607;SDS011;32330;51.936;7.184;2023-03-23T12:55:14;3.45;;;1.00;;
46607;SDS011;32330;51.936;7.184;2023-03-23T12:57:45;4.38;;;0.90;;
46607;SDS011;32330;51.936;7.184;2023-03-23T13:00:19;2.10;;;0.90;;
46607;SDS011;32330;51.936;7.184;2023-03-23T13:02:53;3.50;;;1.00;;
46607;SDS011;32330;51.936;7.184;2023-03-23T13:05:27;3.03;;;1.02;;
46607;SDS011;32330;51.936;7.184;2023-03-23T13:08:01;2.65;;;1.25;;
46607;SDS011;32330;51.936;7.184;2023-03-23T13:10:33;2.75;;;0.93;;
46607;SDS011;32330;51.936;7.184;2023-03-23T13:13:05;2.33;;;0.90;;
46607;SDS011;32330;51.936;7.184;2023-03-23T13:15:42;3.65;;;1.60;;
46607;SDS011;32330;51.936;7.184;2023-03-23T13:18:16;3.88;;;1.20;;
46607;SDS011;32330;51.936;7.184;2023-03-23T13:20:53;3.17;;;0.93;;
46607;SDS011;32330;51.936;7.184;2023-03-23T13:23:24;2.28;;;0.98;;
46607;SDS011;32330;51.936;7.184;2023-03-23T13:25:59;3.88;;;1.60;;
46607;SDS011;32330;51.936;7.184;2023-03-23T13:28:27;2.05;;;1.20;;
46607;SDS011;32330;51.936;7.184;2023-03-23T13:31:00;3.00;;;1.20;;
46607;SDS011;32330;51.936;7.184;2023-03-23T13:33:33;3.88;;;1.10;;
46607;SDS011;32330;51.936;7.184;2023-03-23T13:36:08;3.97;;;1.40;;
46607;SDS011;32330;51.936;7.184;2023-03-23T13:38:36;2.53;;;1.10;;
46607;SDS011;32330;51.936;7.184;2023-03-23T13:41:06;2.88;;;1.10;;
46607;SDS011;32330;51.936;7.184;2023-03-23T13:43:37;2.10;;;1.20;;
46607;SDS011;32330;51.936;7.184;2023-03-23T13:46:11;3.55;;;1.05;;
46607;SDS011;32330;51.936;7.184;2023-03-23T13:48:51;2.95;;;1.05;;
46607;SDS011;32330;51.936;7.184;2023-03-23T13:51:35;2.45;;;1.10;;
46607;SDS011;32330;51.936;7.184;2023-03-23T13:54:14;3.47;;;1.30;;
46607;SDS011;32330;51.936;7.184;2023-03-23T13:56:53;2.22;;;0.80;;
46607;SDS011;32330;51.936;7.184;2023-03-23T13:59:29;4.18;;;2.00;;
46607;SDS011;32330;51.936;7.184;2023-03-23T14:04:55;3.63;;;1.30;;
46607;SDS011;32330;51.936;7.184;2023-03-23T14:07:23;2.88;;;1.65;;
46607;SDS011;32330;51.936;7.184;2023-03-23T14:09:50;4.25;;;1.38;;
46607;SDS011;32330;51.936;7.184;2023-03-23T14:12:18;1.60;;;1.10;;
46607;SDS011;32330;51.936;7.184;2023-03-23T14:14:48;3.70;;;1.40;;
46607;SDS011;32330;51.936;7.184;2023-03-23T14:17:18;3.03;;;1.33;;
46607;SDS011;32330;51.936;7.184;2023-03-23T14:19:50;4.10;;;1.60;;
46607;SDS011;32330;51.936;7.184;2023-03-23T14:22:23;4.75;;;1.48;;
46607;SDS011;32330;51.936;7.184;2023-03-23T14:24:58;4.38;;;1.40;;
46607;SDS011;32330;51.936;7.184;2023-03-23T14:27:26;4.28;;;1.63;;
46607;SDS011;32330;51.936;7.184;2023-03-23T14:29:59;2.67;;;1.52;;
46607;SDS011;32330;51.936;7.184;2023-03-23T14:32:28;5.05;;;1.50;;
46607;SDS011;32330;51.936;7.184;2023-03-23T14:34:59;3.22;;;1.75;;
46607;SDS011;32330;51.936;7.184;2023-03-23T14:37:31;4.03;;;2.15;;
46607;SDS011;32330;51.936;7.184;2023-03-23T14:40:03;4.80;;;1.77;;
46607;SDS011;32330;51.936;7.184;2023-03-23T14:42:33;4.60;;;1.65;;
46607;SDS011;32330;51.936;7.184;2023-03-23T14:45:03;6.28;;;1.70;;
46607;SDS011;32330;51.936;7.184;2023-03-23T14:47:33;4.82;;;1.77;;
46607;SDS011;32330;51.936;7.184;2023-03-23T14:50:05;3.95;;;1.80;;
46607;SDS011;32330;51.936;7.184;2023-03-23T14:52:48;5.22;;;1.73;;
46607;SDS011;32330;51.936;7.184;2023-03-23T14:55:17;4.03;;;1.55;;
46607;SDS011;32330;51.936;7.184;2023-03-23T14:57:45;3.80;;;1.87;;
46607;SDS011;32330;51.936;7.184;2023-03-23T15:00:13;7.13;;;2.15;;
46607;SDS011;32330;51.936;7.184;2023-03-23T15:02:43;5.20;;;2.08;;
46607;SDS011;32330;51.936;7.184;2023-03-23T15:05:15;4.43;;;1.85;;
46607;SDS011;32330;51.936;7.184;2023-03-23T15:07:45;4.60;;;1.60;;
46607;SDS011;32330;51.936;7.184;2023-03-23T15:10:21;4.90;;;2.10;;
46607;SDS011;32330;51.936;7.184;2023-03-23T15:12:50;8.52;;;1.80;;
46607;SDS011;32330;51.936;7.184;2023-03-23T15:15:24;4.75;;;1.77;;
46607;SDS011;32330;51.936;7.184;2023-03-23T15:17:53;4.82;;;2.72;;
46607;SDS011;32330;51.936;7.184;2023-03-23T15:20:23;5.43;;;1.83;;
46607;SDS011;32330;51.936;7.184;2023-03-23T15:22:51;4.32;;;2.13;;
46607;SDS011;32330;51.936;7.184;2023-03-23T15:25:20;5.20;;;2.30;;
46607;SDS011;32330;51.936;7.184;2023-03-23T15:27:49;7.00;;;2.90;;
46607;SDS011;32330;51.936;7.184;2023-03-23T15:30:27;9.27;;;2.85;;
46607;SDS011;32330;51.936;7.184;2023-03-23T15:33:00;4.47;;;2.10;;
46607;SDS011;32330;51.936;7.184;2023-03-23T15:35:32;5.57;;;2.10;;
46607;SDS011;32330;51.936;7.184;2023-03-23T15:38:01;5.68;;;2.28;;
46607;SDS011;32330;51.936;7.184;2023-03-23T15:40:32;6.22;;;2.10;;
46607;SDS011;32330;51.936;7.184;2023-03-23T15:43:07;4.05;;;1.88;;
46607;SDS011;32330;51.936;7.184;2023-03-23T15:45:52;7.30;;;2.65;;
46607;SDS011;32330;51.936;7.184;2023-03-23T15:48:21;6.55;;;2.20;;
46607;SDS011;32330;51.936;7.184;2023-03-23T15:50:50;5.05;;;2.30;;
46607;SDS011;32330;51.936;7.184;2023-03-23T15:53:19;7.20;;;2.45;;
46607;SDS011;32330;51.936;7.184;2023-03-23T15:55:52;5.78;;;2.53;;
46607;SDS011;32330;51.936;7.184;2023-03-23T15:58:19;5.25;;;2.10;;
46607;SDS011;32330;51.936;7.184;2023-03-23T16:00:47;6.15;;;2.20;;
46607;SDS011;32330;51.936;7.184;2023-03-23T16:03:17;7.75;;;2.50;;
46607;SDS011;32330;51.936;7.184;2023-03-23T16:05:48;6.88;;;2.55;;
46607;SDS011;32330;51.936;7.184;2023-03-23T16:08:17;6.53;;;2.72;;
46607;SDS011;32330;51.936;7.184;2023-03-23T16:10:44;8.65;;;2.75;;
46607;SDS011;32330;51.936;7.184;2023-03-23T16:13:11;5.38;;;2.70;;
46607;SDS011;32330;51.936;7.184;2023-03-23T16:15:38;5.35;;;2.63;;
46607;SDS011;32330;51.936;7.184;2023-03-23T16:18:05;7.50;;;2.50;;
46607;SDS011;32330;51.936;7.184;2023-03-23T16:20:32;6.88;;;2.38;;
46607;SDS011;32330;51.936;7.184;2023-03-23T16:23:00;6.07;;;2.70;;
46607;SDS011;32330;51.936;7.184;2023-03-23T16:25:27;7.70;;;3.50;;
46607;SDS011;32330;51.936;7.184;2023-03-23T16:27:54;7.57;;;3.60;;
46607;SDS011;32330;51.936;7.184;2023-03-23T16:30:22;7.40;;;4.13;;
46607;SDS011;32330;51.936;7.184;2023-03-23T16:32:50;6.97;;;3.17;;
46607;SDS011;32330;51.936;7.184;2023-03-23T16:35:18;6.25;;;2.83;;
46607;SDS011;32330;51.936;7.184;2023-03-23T16:37:46;6.57;;;3.22;;
46607;SDS011;32330;51.936;7.184;2023-03-23T16:40:16;8.68;;;2.58;;
46607;SDS011;32330;51.936;7.184;2023-03-23T16:42:44;5.93;;;3.35;;
46607;SDS011;32330;51.936;7.184;2023-03-23T16:45:12;8.13;;;3.92;;
46607;SDS011;32330;51.936;7.184;2023-03-23T16:47:40;5.80;;;3.20;;
46607;SDS011;32330;51.936;7.184;2023-03-23T16:50:08;6.70;;;3.70;;
46607;SDS011;32330;51.936;7.184;2023-03-23T16:52:37;6.30;;;3.30;;
46607;SDS011;32330;51.936;7.184;2023-03-23T16:55:04;9.43;;;3.25;;
46607;SDS011;32330;51.936;7.184;2023-03-23T16:57:34;6.03;;;2.92;;
46607;SDS011;32330;51.936;7.184;2023-03-23T17:00:02;6.35;;;2.80;;
46607;SDS011;32330;51.936;7.184;2023-03-23T17:02:33;6.27;;;3.53;;
46607;SDS011;32330;51.936;7.184;2023-03-23T17:05:00;4.35;;;2.60;;
46607;SDS011;32330;51.936;7.184;2023-03-23T17:07:27;5.57;;;2.60;;
46607;SDS011;32330;51.936;7.184;2023-03-23T17:09:54;5.50;;;2.67;;
46607;SDS011;32330;51.936;7.184;2023-03-23T17:12:21;5.75;;;2.67;;
46607;SDS011;32330;51.936;7.184;2023-03-23T17:14:50;8.50;;;3.58;;
46607;SDS011;32330;51.936;7.184;2023-03-23T17:17:16;4.18;;;2.50;;
46607;SDS011;32330;51.936;7.184;2023-03-23T17:19:44;6.75;;;2.60;;
46607;SDS011;32330;51.936;7.184;2023-03-23T17:22:11;3.20;;;2.33;;
46607;SDS011;32330;51.936;7.184;2023-03-23T17:24:38;6.15;;;3.03;;
46607;SDS011;32330;51.936;7.184;2023-03-23T17:27:05;6.30;;;3.38;;
46607;SDS011;32330;51.936;7.184;2023-03-23T17:29:32;5.78;;;3.10;;
46607;SDS011;32330;51.936;7.184;2023-03-23T17:32:00;6.30;;;2.20;;
46607;SDS011;32330;51.936;7.184;2023-03-23T17:34:27;5.00;;;2.20;;
46607;SDS011;32330;51.936;7.184;2023-03-23T17:36:54;5.40;;;2.13;;
46607;SDS011;32330;51.936;7.184;2023-03-23T17:39:21;5.60;;;2.47;;
46607;SDS011;32330;51.936;7.184;2023-03-23T17:41:48;5.25;;;2.35;;
46607;SDS011;32330;51.936;7.184;2023-03-23T17:44:15;8.82;;;2.97;;
46607;SDS011;32330;51.936;7.184;2023-03-23T17:46:42;8.52;;;3.15;;
46607;SDS011;32330;51.936;7.184;2023-03-23T17:49:10;6.93;;;3.58;;
46607;SDS011;32330;51.936;7.184;2023-03-23T17:51:37;7.80;;;3.33;;
46607;SDS011;32330;51.936;7.184;2023-03-23T17:54:04;6.30;;;2.50;;
46607;SDS011;32330;51.936;7.184;2023-03-23T17:56:31;7.30;;;2.75;;
46607;SDS011;32330;51.936;7.184;2023-03-23T17:58:58;7.53;;;3.38;;
46607;SDS011;32330;51.936;7.184;2023-03-23T18:01:25;7.35;;;3.53;;
46607;SDS011;32330;51.936;7.184;2023-03-23T18:03:52;6.35;;;3.10;;
46607;SDS011;32330;51.936;7.184;2023-03-23T18:06:21;7.07;;;3.90;;
46607;SDS011;32330;51.936;7.184;2023-03-23T18:08:48;8.07;;;3.75;;
46607;SDS011;32330;51.936;7.184;2023-03-23T18:11:15;7.47;;;4.20;;
46607;SDS011;32330;51.936;7.184;2023-03-23T18:13:42;8.38;;;5.25;;
46607;SDS011;32330;51.936;7.184;2023-03-23T18:16:09;6.85;;;4.38;;
46607;SDS011;32330;51.936;7.184;2023-03-23T18:18:35;6.47;;;4.47;;
46607;SDS011;32330;51.936;7.184;2023-03-23T18:21:03;10.57;;;4.97;;
46607;SDS011;32330;51.936;7.184;2023-03-23T18:23:34;9.00;;;4.10;;
46607;SDS011;32330;51.936;7.184;2023-03-23T18:26:02;11.48;;;4.45;;
46607;SDS011;32330;51.936;7.184;2023-03-23T18:28:30;10.30;;;6.28;;
46607;SDS011;32330;51.936;7.184;2023-03-23T18:31:00;10.93;;;4.70;;
46607;SDS011;32330;51.936;7.184;2023-03-23T18:33:28;7.80;;;3.53;;
46607;SDS011;32330;51.936;7.184;2023-03-23T18:35:56;7.40;;;3.35;;
46607;SDS011;32330;51.936;7.184;2023-03-23T18:38:24;6.93;;;3.60;;
46607;SDS011;32330;51.936;7.184;2023-03-23T18:40:52;13.00;;;3.80;;
46607;SDS011;32330;51.936;7.184;2023-03-23T18:43:20;7.95;;;3.42;;
46607;SDS011;32330;51.936;7.184;2023-03-23T18:45:47;7.88;;;3.40;;
46607;SDS011;32330;51.936;7.184;2023-03-23T18:48:15;11.23;;;3.60;;
46607;SDS011;32330;51.936;7.184;2023-03-23T18:50:44;6.97;;;3.10;;
46607;SDS011;32330;51.936;7.184;2023-03-23T18:53:13;6.97;;;2.73;;
46607;SDS011;32330;51.936;7.184;2023-03-23T18:55:40;8.65;;;3.45;;
46607;SDS011;32330;51.936;7.184;2023-03-23T18:58:10;7.65;;;2.88;;
46607;SDS011;32330;51.936;7.184;2023-03-23T19:00:37;8.88;;;3.20;;
46607;SDS011;32330;51.936;7.184;2023-03-23T19:03:05;7.35;;;3.38;;
46607;SDS011;32330;51.936;7.184;2023-03-23T19:05:34;9.10;;;3.17;;
46607;SDS011;32330;51.936;7.184;2023-03-23T19:08:03;8.57;;;3.72;;
46607;SDS011;32330;51.936;7.184;2023-03-23T19:10:30;7.78;;;3.70;;
46607;SDS011;32330;51.936;7.184;2023-03-23T19:12:57;9.60;;;3.80;;
46607;SDS011;32330;51.936;7.184;2023-03-23T19:15:25;7.78;;;3.58;;
46607;SDS011;32330;51.936;7.184;2023-03-23T19:17:52;7.18;;;3.47;;
46607;SDS011;32330;51.936;7.184;2023-03-23T19:20:20;8.40;;;3.15;;
46607;SDS011;32330;51.936;7.184;2023-03-23T19:22:47;8.32;;;3.95;;
46607;SDS011;32330;51.936;7.184;2023-03-23T19:25:14;6.75;;;3.65;;
46607;SDS011;32330;51.936;7.184;2023-03-23T19:27:41;7.70;;;3.47;;
46607;SDS011;32330;51.936;7.184;2023-03-23T19:30:09;6.70;;;3.40;;
46607;SDS011;32330;51.936;7.184;2023-03-23T19:32:37;9.35;;;3.67;;
46607;SDS011;32330;51.936;7.184;2023-03-23T19:35:05;10.80;;;3.60;;
46607;SDS011;32330;51.936;7.184;2023-03-23T19:37:33;9.45;;;3.97;;
46607;SDS011;32330;51.936;7.184;2023-03-23T19:40:00;11.40;;;5.00;;
46607;SDS011;32330;51.936;7.184;2023-03-23T19:42:28;7.63;;;3.40;;
46607;SDS011;32330;51.936;7.184;2023-03-23T19:44:55;7.78;;;3.63;;
46607;SDS011;32330;51.936;7.184;2023-03-23T19:47:22;9.30;;;4.30;;
46607;SDS011;32330;51.936;7.184;2023-03-23T19:49:50;10.00;;;3.83;;
46607;SDS011;32330;51.936;7.184;2023-03-23T19:52:17;7.88;;;3.75;;
46607;SDS011;32330;51.936;7.184;2023-03-23T19:54:44;9.00;;;4.18;;
46607;SDS011;32330;51.936;7.184;2023-03-23T19:57:11;7.95;;;4.28;;
46607;SDS011;32330;51.936;7.184;2023-03-23T19:59:38;8.63;;;4.00;;
46607;SDS011;32330;51.936;7.184;2023-03-23T20:02:05;10.25;;;5.00;;
46607;SDS011;32330;51.936;7.184;2023-03-23T20:04:33;9.55;;;4.07;;
46607;SDS011;32330;51.936;7.184;2023-03-23T20:07:02;7.28;;;3.60;;
46607;SDS011;32330;51.936;7.184;2023-03-23T20:09:30;9.82;;;3.33;;
46607;SDS011;32330;51.936;7.184;2023-03-23T20:11:57;6.22;;;3.38;;
46607;SDS011;32330;51.936;7.184;2023-03-23T20:14:24;9.05;;;3.53;;
46607;SDS011;32330;51.936;7.184;2023-03-23T20:16:51;6.72;;;3.22;;
46607;SDS011;32330;51.936;7.184;2023-03-23T20:19:18;5.63;;;3.10;;
46607;SDS011;32330;51.936;7.184;2023-03-23T20:21:45;6.65;;;2.95;;